sensor_id;sensor_type;location;lat;lon;timestamp;pressure;altitude;pressure_sealevel;temperature;humidity
57644;BME280;43474;46.510;6.686;2024-02-21T00:00:31;97509.13;;;4.86;100.00
57644;BME280;43474;46.510;6.686;2024-02-21T00:03:26;97465.69;;;4.53;100.00
57644;BME280;43474;46.510;6.686;2024-02-21T00:05:52;97481.50;;;4.68;100.00
57644;BME280;43474;46.510;6.686;2024-02-21T00:08:17;97491.25;;;4.82;100.00
57644;BME280;43474;46.510;6.686;2024-02-21T00:10:44;97449.00;;;4.69;100.00
57644;BME280;43474;46.510;6.686;2024-02-21T00:13:33;97494.84;;;4.89;100.00
57644;BME280;43474;46.510;6.686;2024-02-21T00:16:03;97479.63;;;4.76;100.00
57644;BME280;43474;46.510;6.686;2024-02-21T00:18:32;97455.00;;;4.54;100.00
57644;BME280;43474;46.510;6.686;2024-02-21T00:20:59;97462.84;;;4.62;100.00
57644;BME280;43474;46.510;6.686;2024-02-21T00:23:29;97452.38;;;4.54;100.00
57644;BME280;43474;46.510;6.686;2024-02-21T00:25:56;97532.53;;;4.96;100.00
57644;BME280;43474;46.510;6.686;2024-02-21T00:28:24;97438.44;;;4.54;100.00
57644;BME280;43474;46.510;6.686;2024-02-21T00:30:50;97439.13;;;4.71;100.00
57644;BME280;43474;46.510;6.686;2024-02-21T00:33:28;97441.50;;;4.57;100.00
57644;BME280;43474;46.510;6.686;2024-02-21T00:36:04;97432.66;;;4.58;100.00
57644;BME280;43474;46.510;6.686;2024-02-21T00:38:29;97472.63;;;4.91;100.00
57644;BME280;43474;46.510;6.686;2024-02-21T00:40:57;97424.59;;;4.60;100.00
57644;BME280;43474;46.510;6.686;2024-02-21T00:43:25;97422.09;;;4.66;100.00
57644;BME280;43474;46.510;6.686;2024-02-21T00:45:51;97450.81;;;4.68;100.00
57644;BME280;43474;46.510;6.686;2024-02-21T00:48:20;97445.09;;;4.64;100.00
57644;BME280;43474;46.510;6.686;2024-02-21T00:50:49;97463.44;;;4.73;100.00
57644;BME280;43474;46.510;6.686;2024-02-21T00:53:21;97417.75;;;4.51;100.00
57644;BME280;43474;46.510;6.686;2024-02-21T00:55:50;97423.91;;;4.66;100.00
57644;BME280;43474;46.510;6.686;2024-02-21T00:58:15;97458.81;;;4.75;100.00
57644;BME280;43474;46.510;6.686;2024-02-21T01:00:42;97424.72;;;4.44;100.00
57644;BME280;43474;46.510;6.686;2024-02-21T01:03:10;97431.88;;;4.50;100.00
57644;BME280;43474;46.510;6.686;2024-02-21T01:05:36;97445.44;;;4.61;100.00
57644;BME280;43474;46.510;6.686;2024-02-21T01:08:01;97427.28;;;4.52;100.00
57644;BME280;43474;46.510;6.686;2024-02-21T01:10:27;97470.47;;;4.72;100.00
57644;BME280;43474;46.510;6.686;2024-02-21T01:12:53;97441.06;;;4.54;100.00
57644;BME280;43474;46.510;6.686;2024-02-21T01:15:19;97383.09;;;4.63;100.00
57644;BME280;43474;46.510;6.686;2024-02-21T01:17:45;97385.28;;;4.29;100.00
57644;BME280;43474;46.510;6.686;2024-02-21T01:20:11;97443.38;;;4.72;100.00
57644;BME280;43474;46.510;6.686;2024-02-21T01:22:37;97389.84;;;4.27;100.00
57644;BME280;43474;46.510;6.686;2024-02-21T01:25:02;97373.59;;;4.00;100.00
57644;BME280;43474;46.510;6.686;2024-02-21T01:27:28;97367.44;;;3.93;100.00
57644;BME280;43474;46.510;6.686;2024-02-21T01:29:54;97372.66;;;3.93;100.00
57644;BME280;43474;46.510;6.686;2024-02-21T01:32:21;97395.22;;;4.02;100.00
57644;BME280;43474;46.510;6.686;2024-02-21T01:34:47;97362.72;;;3.80;100.00
57644;BME280;43474;46.510;6.686;2024-02-21T01:37:13;97380.69;;;3.92;100.00
57644;BME280;43474;46.510;6.686;2024-02-21T01:39:38;97400.09;;;4.13;100.00
57644;BME280;43474;46.510;6.686;2024-02-21T01:42:04;97342.22;;;3.84;100.00
57644;BME280;43474;46.510;6.686;2024-02-21T01:44:30;97342.22;;;3.84;100.00
57644;BME280;43474;46.510;6.686;2024-02-21T01:46:57;97336.16;;;3.83;100.00
57644;BME280;43474;46.510;6.686;2024-02-21T01:49:23;97357.38;;;3.97;100.00
57644;BME280;43474;46.510;6.686;2024-02-21T01:51:50;97327.13;;;3.86;100.00
57644;BME280;43474;46.510;6.686;2024-02-21T01:54:17;97328.84;;;4.02;100.00
57644;BME280;43474;46.510;6.686;2024-02-21T01:56:43;97349.56;;;4.20;100.00
57644;BME280;43474;46.510;6.686;2024-02-21T01:59:11;97316.53;;;4.02;100.00
57644;BME280;43474;46.510;6.686;2024-02-21T02:01:37;97332.75;;;4.06;100.00
57644;BME280;43474;46.510;6.686;2024-02-21T02:04:04;97370.16;;;4.31;100.00
57644;BME280;43474;46.510;6.686;2024-02-21T02:06:31;97360.97;;;4.35;100.00
57644;BME280;43474;46.510;6.686;2024-02-21T02:08:57;97352.81;;;4.22;100.00
57644;BME280;43474;46.510;6.686;2024-02-21T02:11:23;97364.13;;;4.22;100.00
57644;BME280;43474;46.510;6.686;2024-02-21T02:13:51;97366.81;;;4.14;100.00
57644;BME280;43474;46.510;6.686;2024-02-21T02:16:17;97329.78;;;3.78;100.00
57644;BME280;43474;46.510;6.686;2024-02-21T02:18:43;97305.28;;;3.62;100.00
57644;BME280;43474;46.510;6.686;2024-02-21T02:21:21;97351.25;;;3.81;100.00
57644;BME280;43474;46.510;6.686;2024-02-21T02:23:48;97377.25;;;3.91;100.00
57644;BME280;43474;46.510;6.686;2024-02-21T02:26:15;97272.19;;;3.30;100.00
57644;BME280;43474;46.510;6.686;2024-02-21T02:28:43;97322.69;;;3.55;100.00
57644;BME280;43474;46.510;6.686;2024-02-21T02:31:12;97342.97;;;3.61;100.00
57644;BME280;43474;46.510;6.686;2024-02-21T02:33:38;97309.78;;;3.37;100.00
57644;BME280;43474;46.510;6.686;2024-02-21T02:36:04;97287.44;;;3.19;100.00
57644;BME280;43474;46.510;6.686;2024-02-21T02:38:30;97300.66;;;3.33;100.00
57644;BME280;43474;46.510;6.686;2024-02-21T02:40:56;97301.81;;;3.31;100.00
57644;BME280;43474;46.510;6.686;2024-02-21T02:43:22;97330.56;;;3.47;100.00
57644;BME280;43474;46.510;6.686;2024-02-21T02:45:48;97315.38;;;3.34;100.00
57644;BME280;43474;46.510;6.686;2024-02-21T02:48:14;97313.91;;;3.32;100.00
57644;BME280;43474;46.510;6.686;2024-02-21T02:50:40;97306.41;;;3.29;100.00
57644;BME280;43474;46.510;6.686;2024-02-21T02:53:08;97260.34;;;3.03;100.00
57644;BME280;43474;46.510;6.686;2024-02-21T02:55:34;97269.94;;;3.11;100.00
57644;BME280;43474;46.510;6.686;2024-02-21T02:58:01;97325.69;;;3.44;100.00
57644;BME280;43474;46.510;6.686;2024-02-21T03:00:29;97315.91;;;3.30;100.00
57644;BME280;43474;46.510;6.686;2024-02-21T03:02:57;97312.47;;;3.29;100.00
57644;BME280;43474;46.510;6.686;2024-02-21T03:05:23;97341.84;;;3.48;100.00
57644;BME280;43474;46.510;6.686;2024-02-21T03:07:49;97288.91;;;3.60;100.00
57644;BME280;43474;46.510;6.686;2024-02-21T03:10:16;97270.84;;;3.34;100.00
57644;BME280;43474;46.510;6.686;2024-02-21T03:12:44;97280.88;;;3.23;100.00
57644;BME280;43474;46.510;6.686;2024-02-21T03:15:14;97283.19;;;3.18;100.00
57644;BME280;43474;46.510;6.686;2024-02-21T03:17:40;97257.72;;;2.87;100.00
57644;BME280;43474;46.510;6.686;2024-02-21T03:20:07;97253.31;;;2.88;100.00
57644;BME280;43474;46.510;6.686;2024-02-21T03:22:41;97248.44;;;2.76;100.00
57644;BME280;43474;46.510;6.686;2024-02-21T03:25:12;97271.13;;;3.00;100.00
57644;BME280;43474;46.510;6.686;2024-02-21T03:27:39;97286.81;;;3.08;100.00
57644;BME280;43474;46.510;6.686;2024-02-21T03:30:06;97290.59;;;2.98;100.00
57644;BME280;43474;46.510;6.686;2024-02-21T03:32:34;97251.72;;;2.70;100.00
57644;BME280;43474;46.510;6.686;2024-02-21T03:35:01;97228.16;;;2.70;100.00
57644;BME280;43474;46.510;6.686;2024-02-21T03:37:29;97219.47;;;2.86;100.00
57644;BME280;43474;46.510;6.686;2024-02-21T03:40:07;97244.34;;;3.29;100.00
57644;BME280;43474;46.510;6.686;2024-02-21T03:42:33;97261.81;;;3.45;100.00
57644;BME280;43474;46.510;6.686;2024-02-21T03:44:59;97234.88;;;3.28;100.00
57644;BME280;43474;46.510;6.686;2024-02-21T03:47:25;97209.22;;;3.16;100.00
57644;BME280;43474;46.510;6.686;2024-02-21T03:49:52;97206.28;;;3.10;100.00
57644;BME280;43474;46.510;6.686;2024-02-21T03:52:18;97208.41;;;3.07;100.00
57644;BME280;43474;46.510;6.686;2024-02-21T03:54:44;97246.09;;;3.37;100.00
57644;BME280;43474;46.510;6.686;2024-02-21T03:57:10;97207.03;;;3.27;100.00
57644;BME280;43474;46.510;6.686;2024-02-21T03:59:39;97251.94;;;3.47;100.00
57644;BME280;43474;46.510;6.686;2024-02-21T04:02:06;97207.03;;;3.27;100.00
57644;BME280;43474;46.510;6.686;2024-02-21T04:04:35;97197.03;;;3.31;100.00
57644;BME280;43474;46.510;6.686;2024-02-21T04:07:03;97270.38;;;3.62;100.00
57644;BME280;43474;46.510;6.686;2024-02-21T04:09:33;97205.75;;;3.23;100.00
57644;BME280;43474;46.510;6.686;2024-02-21T04:12:00;97204.41;;;3.27;100.00
57644;BME280;43474;46.510;6.686;2024-02-21T04:14:37;97247.00;;;3.52;100.00
57644;BME280;43474;46.510;6.686;2024-02-21T04:17:08;97218.97;;;3.30;100.00
57644;BME280;43474;46.510;6.686;2024-02-21T04:19:34;97240.56;;;3.32;100.00
57644;BME280;43474;46.510;6.686;2024-02-21T04:22:02;97208.88;;;3.19;100.00
57644;BME280;43474;46.510;6.686;2024-02-21T04:24:31;97244.16;;;3.39;100.00
57644;BME280;43474;46.510;6.686;2024-02-21T04:26:57;97207.72;;;3.21;100.00
57644;BME280;43474;46.510;6.686;2024-02-21T04:29:25;97234.31;;;3.41;100.00
57644;BME280;43474;46.510;6.686;2024-02-21T04:31:53;97258.97;;;3.55;100.00
57644;BME280;43474;46.510;6.686;2024-02-21T04:34:20;97257.69;;;3.43;100.00
57644;BME280;43474;46.510;6.686;2024-02-21T04:36:53;97203.03;;;3.08;100.00
57644;BME280;43474;46.510;6.686;2024-02-21T04:39:19;97203.94;;;3.24;100.00
57644;BME280;43474;46.510;6.686;2024-02-21T04:41:45;97230.78;;;3.26;100.00
57644;BME280;43474;46.510;6.686;2024-02-21T04:44:11;97248.94;;;3.27;100.00
57644;BME280;43474;46.510;6.686;2024-02-21T04:46:37;97193.09;;;2.96;100.00
57644;BME280;43474;46.510;6.686;2024-02-21T04:49:03;97185.09;;;2.89;100.00
57644;BME280;43474;46.510;6.686;2024-02-21T04:51:29;97197.13;;;3.06;100.00
57644;BME280;43474;46.510;6.686;2024-02-21T04:53:57;97227.47;;;3.32;100.00
57644;BME280;43474;46.510;6.686;2024-02-21T04:56:23;97211.00;;;3.23;100.00
57644;BME280;43474;46.510;6.686;2024-02-21T04:58:49;97172.28;;;3.02;100.00
57644;BME280;43474;46.510;6.686;2024-02-21T05:01:15;97155.00;;;2.85;100.00
57644;BME280;43474;46.510;6.686;2024-02-21T05:03:41;97228.88;;;3.43;100.00
57644;BME280;43474;46.510;6.686;2024-02-21T05:06:09;97180.94;;;3.03;100.00
57644;BME280;43474;46.510;6.686;2024-02-21T05:08:35;97172.31;;;2.94;100.00
57644;BME280;43474;46.510;6.686;2024-02-21T05:11:01;97200.53;;;3.15;100.00
57644;BME280;43474;46.510;6.686;2024-02-21T05:13:30;97156.34;;;2.81;100.00
57644;BME280;43474;46.510;6.686;2024-02-21T05:15:56;97198.63;;;3.01;100.00
57644;BME280;43474;46.510;6.686;2024-02-21T05:18:34;97197.50;;;3.03;100.00
57644;BME280;43474;46.510;6.686;2024-02-21T05:21:01;97172.13;;;3.04;100.00
57644;BME280;43474;46.510;6.686;2024-02-21T05:23:32;97186.03;;;3.04;100.00
57644;BME280;43474;46.510;6.686;2024-02-21T05:25:58;97178.81;;;2.98;100.00
57644;BME280;43474;46.510;6.686;2024-02-21T05:28:24;97183.25;;;2.98;100.00
57644;BME280;43474;46.510;6.686;2024-02-21T05:30:53;97148.97;;;2.76;100.00
57644;BME280;43474;46.510;6.686;2024-02-21T05:33:19;97186.22;;;2.95;100.00
57644;BME280;43474;46.510;6.686;2024-02-21T05:35:47;97170.91;;;2.75;100.00
57644;BME280;43474;46.510;6.686;2024-02-21T05:38:17;97209.91;;;3.01;100.00
57644;BME280;43474;46.510;6.686;2024-02-21T05:40:48;97150.16;;;2.66;100.00
57644;BME280;43474;46.510;6.686;2024-02-21T05:43:14;97186.25;;;2.78;100.00
57644;BME280;43474;46.510;6.686;2024-02-21T05:45:46;97162.81;;;2.54;100.00
57644;BME280;43474;46.510;6.686;2024-02-21T05:48:16;97206.88;;;2.81;100.00
57644;BME280;43474;46.510;6.686;2024-02-21T05:50:44;97181.56;;;2.74;100.00
57644;BME280;43474;46.510;6.686;2024-02-21T05:53:10;97179.75;;;2.74;100.00
57644;BME280;43474;46.510;6.686;2024-02-21T05:55:36;97197.53;;;2.87;100.00
57644;BME280;43474;46.510;6.686;2024-02-21T05:58:02;97191.00;;;2.83;100.00
57644;BME280;43474;46.510;6.686;2024-02-21T06:00:29;97185.88;;;2.98;100.00
57644;BME280;43474;46.510;6.686;2024-02-21T06:02:55;97164.81;;;2.83;100.00
57644;BME280;43474;46.510;6.686;2024-02-21T06:05:21;97185.88;;;2.98;100.00
57644;BME280;43474;46.510;6.686;2024-02-21T06:07:50;97232.88;;;3.30;100.00
57644;BME280;43474;46.510;6.686;2024-02-21T06:10:19;97162.06;;;2.84;100.00
57644;BME280;43474;46.510;6.686;2024-02-21T06:12:45;97169.09;;;2.84;100.00
57644;BME280;43474;46.510;6.686;2024-02-21T06:15:11;97153.22;;;2.77;100.00
57644;BME280;43474;46.510;6.686;2024-02-21T06:17:37;97219.66;;;3.24;100.00
57644;BME280;43474;46.510;6.686;2024-02-21T06:20:03;97141.31;;;2.75;100.00
57644;BME280;43474;46.510;6.686;2024-02-21T06:22:30;97180.00;;;2.96;100.00
57644;BME280;43474;46.510;6.686;2024-02-21T06:24:59;97177.06;;;2.99;100.00
57644;BME280;43474;46.510;6.686;2024-02-21T06:27:27;97192.72;;;3.07;100.00
57644;BME280;43474;46.510;6.686;2024-02-21T06:30:19;97165.13;;;2.88;100.00
57644;BME280;43474;46.510;6.686;2024-02-21T06:32:54;97216.00;;;3.33;100.00
57644;BME280;43474;46.510;6.686;2024-02-21T06:35:36;97151.88;;;2.90;100.00
57644;BME280;43474;46.510;6.686;2024-02-21T06:38:17;97162.31;;;2.98;100.00
57644;BME280;43474;46.510;6.686;2024-02-21T06:40:43;97187.97;;;3.02;100.00
57644;BME280;43474;46.510;6.686;2024-02-21T06:43:20;97172.00;;;2.89;100.00
57644;BME280;43474;46.510;6.686;2024-02-21T06:45:51;97241.22;;;3.34;100.00
57644;BME280;43474;46.510;6.686;2024-02-21T06:48:19;97200.41;;;3.08;100.00
57644;BME280;43474;46.510;6.686;2024-02-21T06:50:45;97221.59;;;3.30;100.00
57644;BME280;43474;46.510;6.686;2024-02-21T06:53:16;97188.25;;;3.16;100.00
57644;BME280;43474;46.510;6.686;2024-02-21T06:55:41;97212.41;;;3.34;100.00
57644;BME280;43474;46.510;6.686;2024-02-21T06:58:07;97227.41;;;3.48;100.00
57644;BME280;43474;46.510;6.686;2024-02-21T07:00:37;97183.31;;;3.21;100.00
57644;BME280;43474;46.510;6.686;2024-02-21T07:03:03;97199.75;;;3.37;100.00
57644;BME280;43474;46.510;6.686;2024-02-21T07:05:29;97193.34;;;3.48;100.00
57644;BME280;43474;46.510;6.686;2024-02-21T07:07:55;97181.56;;;3.44;100.00
57644;BME280;43474;46.510;6.686;2024-02-21T07:10:20;97203.06;;;3.62;100.00
57644;BME280;43474;46.510;6.686;2024-02-21T07:12:46;97234.38;;;3.87;100.00
57644;BME280;43474;46.510;6.686;2024-02-21T07:15:12;97246.22;;;4.06;100.00
57644;BME280;43474;46.510;6.686;2024-02-21T07:17:38;97232.34;;;3.97;100.00
57644;BME280;43474;46.510;6.686;2024-02-21T07:20:04;97245.56;;;4.27;100.00
57644;BME280;43474;46.510;6.686;2024-02-21T07:22:30;97182.41;;;3.91;100.00
57644;BME280;43474;46.510;6.686;2024-02-21T07:24:55;97205.47;;;4.18;100.00
57644;BME280;43474;46.510;6.686;2024-02-21T07:27:22;97235.75;;;4.44;100.00
57644;BME280;43474;46.510;6.686;2024-02-21T07:29:47;97188.56;;;4.21;100.00
57644;BME280;43474;46.510;6.686;2024-02-21T07:32:15;97191.41;;;4.34;100.00
57644;BME280;43474;46.510;6.686;2024-02-21T07:34:40;97173.94;;;4.41;100.00
57644;BME280;43474;46.510;6.686;2024-02-21T07:37:06;97201.41;;;4.68;100.00
57644;BME280;43474;46.510;6.686;2024-02-21T07:39:36;97169.50;;;4.56;100.00
57644;BME280;43474;46.510;6.686;2024-02-21T07:42:03;97244.81;;;5.08;100.00
57644;BME280;43474;46.510;6.686;2024-02-21T07:44:28;97201.84;;;4.86;100.00
57644;BME280;43474;46.510;6.686;2024-02-21T07:46:54;97220.16;;;5.09;100.00
57644;BME280;43474;46.510;6.686;2024-02-21T07:49:20;97179.22;;;5.00;100.00
57644;BME280;43474;46.510;6.686;2024-02-21T07:51:46;97209.81;;;5.23;100.00
57644;BME280;43474;46.510;6.686;2024-02-21T07:54:15;97230.63;;;5.54;100.00
57644;BME280;43474;46.510;6.686;2024-02-21T07:56:45;97164.97;;;5.24;100.00
57644;BME280;43474;46.510;6.686;2024-02-21T07:59:16;97199.38;;;5.44;100.00
57644;BME280;43474;46.510;6.686;2024-02-21T08:01:44;97182.13;;;5.41;100.00
57644;BME280;43474;46.510;6.686;2024-02-21T08:04:15;97206.91;;;5.68;100.00
57644;BME280;43474;46.510;6.686;2024-02-21T08:07:03;97196.25;;;5.55;100.00
57644;BME280;43474;46.510;6.686;2024-02-21T08:09:55;97177.09;;;5.61;100.00
57644;BME280;43474;46.510;6.686;2024-02-21T08:12:48;97221.63;;;5.99;100.00
57644;BME280;43474;46.510;6.686;2024-02-21T08:15:31;97166.84;;;5.88;100.00
57644;BME280;43474;46.510;6.686;2024-02-21T08:18:30;97169.88;;;6.06;100.00
57644;BME280;43474;46.510;6.686;2024-02-21T08:21:20;97172.06;;;6.24;100.00
57644;BME280;43474;46.510;6.686;2024-02-21T08:24:53;97240.00;;;6.63;100.00
57644;BME280;43474;46.510;6.686;2024-02-21T08:27:21;97150.44;;;6.57;100.00
57644;BME280;43474;46.510;6.686;2024-02-21T08:29:49;97219.84;;;7.12;100.00
57644;BME280;43474;46.510;6.686;2024-02-21T08:32:35;97205.00;;;7.04;100.00
57644;BME280;43474;46.510;6.686;2024-02-21T08:35:42;97158.44;;;6.77;100.00
57644;BME280;43474;46.510;6.686;2024-02-21T08:41:09;97142.78;;;7.10;100.00
57644;BME280;43474;46.510;6.686;2024-02-21T08:44:09;97182.00;;;7.26;100.00
57644;BME280;43474;46.510;6.686;2024-02-21T08:47:16;97176.47;;;7.21;100.00
57644;BME280;43474;46.510;6.686;2024-02-21T08:50:12;97143.66;;;7.23;100.00
57644;BME280;43474;46.510;6.686;2024-02-21T08:52:58;97165.69;;;7.57;100.00
57644;BME280;43474;46.510;6.686;2024-02-21T08:56:08;97184.59;;;7.74;100.00
57644;BME280;43474;46.510;6.686;2024-02-21T08:58:44;97155.47;;;7.41;100.00
57644;BME280;43474;46.510;6.686;2024-02-21T09:05:16;97215.66;;;7.78;100.00
57644;BME280;43474;46.510;6.686;2024-02-21T09:08:08;97200.47;;;7.87;100.00
57644;BME280;43474;46.510;6.686;2024-02-21T09:14:32;97158.84;;;7.89;100.00
57644;BME280;43474;46.510;6.686;2024-02-21T09:23:47;97133.88;;;8.25;100.00
57644;BME280;43474;46.510;6.686;2024-02-21T09:27:10;97216.78;;;8.64;100.00
57644;BME280;43474;46.510;6.686;2024-02-21T09:30:38;97167.00;;;8.27;100.00
57644;BME280;43474;46.510;6.686;2024-02-21T09:33:19;97140.78;;;8.19;100.00
57644;BME280;43474;46.510;6.686;2024-02-21T09:39:59;97135.91;;;8.29;100.00
57644;BME280;43474;46.510;6.686;2024-02-21T09:46:45;97195.63;;;8.84;100.00
57644;BME280;43474;46.510;6.686;2024-02-21T09:53:44;97152.75;;;8.68;100.00
57644;BME280;43474;46.510;6.686;2024-02-21T09:56:28;97133.44;;;8.74;100.00
57644;BME280;43474;46.510;6.686;2024-02-21T09:59:32;97176.41;;;9.15;100.00
57644;BME280;43474;46.510;6.686;2024-02-21T10:02:38;97164.09;;;9.47;100.00
57644;BME280;43474;46.510;6.686;2024-02-21T10:05:38;97138.56;;;9.27;100.00
57644;BME280;43474;46.510;6.686;2024-02-21T10:09:06;97148.06;;;9.42;100.00
57644;BME280;43474;46.510;6.686;2024-02-21T10:15:59;97202.09;;;9.97;100.00
57644;BME280;43474;46.510;6.686;2024-02-21T10:22:41;97167.69;;;9.14;100.00
57644;BME280;43474;46.510;6.686;2024-02-21T10:25:34;97183.16;;;9.04;100.00
57644;BME280;43474;46.510;6.686;2024-02-21T10:28:49;97163.06;;;8.96;100.00
57644;BME280;43474;46.510;6.686;2024-02-21T10:31:25;97137.03;;;8.93;100.00
57644;BME280;43474;46.510;6.686;2024-02-21T10:35:00;97111.06;;;9.28;100.00
57644;BME280;43474;46.510;6.686;2024-02-21T10:38:22;97170.59;;;10.71;99.11
57644;BME280;43474;46.510;6.686;2024-02-21T10:44:38;97094.50;;;11.08;91.36
57644;BME280;43474;46.510;6.686;2024-02-21T10:51:27;97141.63;;;12.03;89.27
57644;BME280;43474;46.510;6.686;2024-02-21T10:58:08;97107.91;;;11.92;84.48
57644;BME280;43474;46.510;6.686;2024-02-21T11:04:08;97087.69;;;11.60;86.55
57644;BME280;43474;46.510;6.686;2024-02-21T11:07:17;97108.19;;;12.37;89.16
57644;BME280;43474;46.510;6.686;2024-02-21T11:17:40;97069.47;;;11.94;87.13
57644;BME280;43474;46.510;6.686;2024-02-21T11:20:49;97037.25;;;11.60;84.40
57644;BME280;43474;46.510;6.686;2024-02-21T11:28:11;97057.63;;;11.48;85.88
57644;BME280;43474;46.510;6.686;2024-02-21T11:31:08;97046.09;;;11.43;85.22
57644;BME280;43474;46.510;6.686;2024-02-21T11:33:57;97035.69;;;10.99;89.12
57644;BME280;43474;46.510;6.686;2024-02-21T11:36:36;97021.25;;;10.77;88.37
57644;BME280;43474;46.510;6.686;2024-02-21T11:39:32;97011.63;;;10.02;93.95
57644;BME280;43474;46.510;6.686;2024-02-21T11:42:18;97009.47;;;10.73;98.27
57644;BME280;43474;46.510;6.686;2024-02-21T11:44:50;96984.84;;;10.84;95.19
57644;BME280;43474;46.510;6.686;2024-02-21T11:47:52;97002.41;;;10.85;94.53
57644;BME280;43474;46.510;6.686;2024-02-21T11:53:56;96981.19;;;11.15;91.03
57644;BME280;43474;46.510;6.686;2024-02-21T11:56:31;96932.72;;;10.78;91.65
57644;BME280;43474;46.510;6.686;2024-02-21T11:59:06;96962.00;;;11.13;92.97
57644;BME280;43474;46.510;6.686;2024-02-21T12:02:03;96944.56;;;11.35;93.22
57644;BME280;43474;46.510;6.686;2024-02-21T12:04:49;96971.34;;;11.57;92.60
57644;BME280;43474;46.510;6.686;2024-02-21T12:07:29;96902.69;;;11.49;93.15
57644;BME280;43474;46.510;6.686;2024-02-21T12:10:21;96971.81;;;11.66;92.16
57644;BME280;43474;46.510;6.686;2024-02-21T12:13:25;96918.38;;;11.39;90.60
57644;BME280;43474;46.510;6.686;2024-02-21T12:16:12;96895.41;;;11.56;87.25
57644;BME280;43474;46.510;6.686;2024-02-21T12:19:18;96927.63;;;11.83;84.32
57644;BME280;43474;46.510;6.686;2024-02-21T12:22:41;96945.88;;;12.15;81.32
57644;BME280;43474;46.510;6.686;2024-02-21T12:25:26;96901.41;;;11.40;79.48
57644;BME280;43474;46.510;6.686;2024-02-21T12:31:09;96901.88;;;11.49;79.53
57644;BME280;43474;46.510;6.686;2024-02-21T12:33:46;96877.13;;;12.19;79.58
57644;BME280;43474;46.510;6.686;2024-02-21T12:36:16;96863.50;;;12.15;77.07
57644;BME280;43474;46.510;6.686;2024-02-21T12:38:52;96845.88;;;11.97;79.47
57644;BME280;43474;46.510;6.686;2024-02-21T12:41:21;96906.38;;;12.59;74.66
57644;BME280;43474;46.510;6.686;2024-02-21T12:56:33;96873.44;;;13.22;73.56
57644;BME280;43474;46.510;6.686;2024-02-21T12:59:59;96797.75;;;12.67;69.14
57644;BME280;43474;46.510;6.686;2024-02-21T13:03:47;96812.34;;;12.36;79.82
57644;BME280;43474;46.510;6.686;2024-02-21T13:30:30;96744.38;;;11.95;72.43
57644;BME280;43474;46.510;6.686;2024-02-21T13:33:30;96740.34;;;11.93;75.36
57644;BME280;43474;46.510;6.686;2024-02-21T13:47:03;96737.44;;;11.42;83.42
57644;BME280;43474;46.510;6.686;2024-02-21T14:15:29;96630.31;;;10.44;92.87
57644;BME280;43474;46.510;6.686;2024-02-21T14:33:25;96584.44;;;10.44;81.42
57644;BME280;43474;46.510;6.686;2024-02-21T15:03:26;96553.59;;;10.26;84.95
57644;BME280;43474;46.510;6.686;2024-02-21T15:28:52;96593.81;;;10.98;nan
57644;BME280;43474;46.510;6.686;2024-02-21T15:32:07;96594.28;;;11.07;80.23
57644;BME280;43474;46.510;6.686;2024-02-21T15:42:51;96546.31;;;10.56;91.10
57644;BME280;43474;46.510;6.686;2024-02-21T15:46:12;96527.47;;;10.29;94.10
57644;BME280;43474;46.510;6.686;2024-02-21T15:52:27;96546.34;;;10.33;96.62
57644;BME280;43474;46.510;6.686;2024-02-21T15:59:28;96519.03;;;10.21;91.39
57644;BME280;43474;46.510;6.686;2024-02-21T16:02:23;96500.28;;;10.10;98.61
57644;BME280;43474;46.510;6.686;2024-02-21T16:05:10;96529.63;;;9.86;100.00
57644;BME280;43474;46.510;6.686;2024-02-21T16:07:39;96516.84;;;9.82;100.00
57644;BME280;43474;46.510;6.686;2024-02-21T16:10:28;96512.78;;;9.68;100.00
57644;BME280;43474;46.510;6.686;2024-02-21T16:13:26;96495.88;;;9.57;100.00
57644;BME280;43474;46.510;6.686;2024-02-21T16:16:09;96493.22;;;9.57;100.00
57644;BME280;43474;46.510;6.686;2024-02-21T16:18:55;96488.59;;;9.41;100.00
57644;BME280;43474;46.510;6.686;2024-02-21T16:21:39;96492.72;;;9.37;100.00
57644;BME280;43474;46.510;6.686;2024-02-21T16:24:31;96519.56;;;9.52;100.00
57644;BME280;43474;46.510;6.686;2024-02-21T16:27:27;96496.91;;;9.15;100.00
57644;BME280;43474;46.510;6.686;2024-02-21T16:30:11;96482.97;;;9.07;100.00
57644;BME280;43474;46.510;6.686;2024-02-21T16:32:48;96490.16;;;8.89;100.00
57644;BME280;43474;46.510;6.686;2024-02-21T16:35:25;96499.81;;;8.95;100.00
57644;BME280;43474;46.510;6.686;2024-02-21T16:38:00;96549.91;;;9.20;100.00
57644;BME280;43474;46.510;6.686;2024-02-21T16:48:09;96468.31;;;8.63;100.00
57644;BME280;43474;46.510;6.686;2024-02-21T16:51:32;96510.31;;;9.01;100.00
57644;BME280;43474;46.510;6.686;2024-02-21T16:54:24;96529.25;;;9.28;100.00
57644;BME280;43474;46.510;6.686;2024-02-21T17:01:20;96445.53;;;8.50;100.00
57644;BME280;43474;46.510;6.686;2024-02-21T17:03:49;96478.13;;;8.74;100.00
57644;BME280;43474;46.510;6.686;2024-02-21T17:06:36;96427.84;;;8.33;100.00
57644;BME280;43474;46.510;6.686;2024-02-21T17:09:13;96450.75;;;8.39;100.00
57644;BME280;43474;46.510;6.686;2024-02-21T17:11:43;96425.06;;;8.27;100.00
57644;BME280;43474;46.510;6.686;2024-02-21T17:14:10;96461.53;;;8.86;100.00
57644;BME280;43474;46.510;6.686;2024-02-21T17:16:36;96457.00;;;8.74;100.00
57644;BME280;43474;46.510;6.686;2024-02-21T17:19:08;96466.75;;;8.74;100.00
57644;BME280;43474;46.510;6.686;2024-02-21T17:21:54;96446.81;;;8.60;100.00
57644;BME280;43474;46.510;6.686;2024-02-21T17:24:29;96421.69;;;8.39;100.00
57644;BME280;43474;46.510;6.686;2024-02-21T17:30:23;96423.91;;;8.42;100.00
57644;BME280;43474;46.510;6.686;2024-02-21T17:33:18;96490.69;;;8.79;100.00
57644;BME280;43474;46.510;6.686;2024-02-21T17:35:54;96430.66;;;8.38;100.00
57644;BME280;43474;46.510;6.686;2024-02-21T17:38:42;96455.81;;;8.40;100.00
57644;BME280;43474;46.510;6.686;2024-02-21T17:41:42;96411.72;;;8.04;100.00
57644;BME280;43474;46.510;6.686;2024-02-21T17:44:30;96419.06;;;8.02;100.00
57644;BME280;43474;46.510;6.686;2024-02-21T17:47:01;96414.22;;;7.99;100.00